sensor_id;sensor_type;location;lat;lon;timestamp;temperature;humidity
17994;DHT22;9122;48.406;9.984;2023-06-24T00:02:19;19.80;85.40
17994;DHT22;9122;48.406;9.984;2023-06-24T00:05:05;19.70;85.60
17994;DHT22;9122;48.406;9.984;2023-06-24T00:07:50;19.70;85.80
17994;DHT22;9122;48.406;9.984;2023-06-24T00:10:35;19.70;86.00
17994;DHT22;9122;48.406;9.984;2023-06-24T00:13:20;19.70;86.00
17994;DHT22;9122;48.406;9.984;2023-06-24T00:16:05;19.60;86.30
17994;DHT22;9122;48.406;9.984;2023-06-24T00:18:50;19.60;86.00
17994;DHT22;9122;48.406;9.984;2023-06-24T00:21:35;19.60;86.10
17994;DHT22;9122;48.406;9.984;2023-06-24T00:24:22;19.60;86.10
17994;DHT22;9122;48.406;9.984;2023-06-24T00:27:09;19.60;86.40
17994;DHT22;9122;48.406;9.984;2023-06-24T00:29:54;19.60;86.60
17994;DHT22;9122;48.406;9.984;2023-06-24T00:32:38;19.50;86.80
17994;DHT22;9122;48.406;9.984;2023-06-24T00:35:23;19.50;86.90
17994;DHT22;9122;48.406;9.984;2023-06-24T00:38:07;19.60;87.20
17994;DHT22;9122;48.406;9.984;2023-06-24T00:40:52;19.50;87.20
17994;DHT22;9122;48.406;9.984;2023-06-24T00:43:36;19.50;87.40
17994;DHT22;9122;48.406;9.984;2023-06-24T00:46:22;19.50;87.40
17994;DHT22;9122;48.406;9.984;2023-06-24T00:49:09;19.50;87.40
17994;DHT22;9122;48.406;9.984;2023-06-24T00:51:53;19.50;87.50
17994;DHT22;9122;48.406;9.984;2023-06-24T00:54:39;19.50;87.60
17994;DHT22;9122;48.406;9.984;2023-06-24T00:57:23;19.50;87.60
17994;DHT22;9122;48.406;9.984;2023-06-24T01:00:08;19.50;87.60
17994;DHT22;9122;48.406;9.984;2023-06-24T01:02:56;19.50;88.20
17994;DHT22;9122;48.406;9.984;2023-06-24T01:05:43;19.40;88.60
17994;DHT22;9122;48.406;9.984;2023-06-24T01:08:27;19.40;88.70
17994;DHT22;9122;48.406;9.984;2023-06-24T01:11:12;19.40;88.60
17994;DHT22;9122;48.406;9.984;2023-06-24T01:13:57;19.40;88.50
17994;DHT22;9122;48.406;9.984;2023-06-24T01:17:03;19.40;88.50
17994;DHT22;9122;48.406;9.984;2023-06-24T01:22:57;19.30;88.90
17994;DHT22;9122;48.406;9.984;2023-06-24T01:35:00;19.30;89.10
17994;DHT22;9122;48.406;9.984;2023-06-24T01:37:54;19.30;89.20
17994;DHT22;9122;48.406;9.984;2023-06-24T01:40:45;19.30;89.40
17994;DHT22;9122;48.406;9.984;2023-06-24T01:43:31;19.30;89.70
17994;DHT22;9122;48.406;9.984;2023-06-24T01:46:21;19.20;89.70
17994;DHT22;9122;48.406;9.984;2023-06-24T01:49:08;19.20;89.90
17994;DHT22;9122;48.406;9.984;2023-06-24T01:51:57;19.20;90.00
17994;DHT22;9122;48.406;9.984;2023-06-24T01:54:46;19.20;90.00
17994;DHT22;9122;48.406;9.984;2023-06-24T01:57:33;19.20;90.00
17994;DHT22;9122;48.406;9.984;2023-06-24T02:00:18;19.20;90.00
17994;DHT22;9122;48.406;9.984;2023-06-24T02:03:04;19.20;90.00
17994;DHT22;9122;48.406;9.984;2023-06-24T02:05:50;19.10;90.00
17994;DHT22;9122;48.406;9.984;2023-06-24T02:08:38;19.10;90.10
17994;DHT22;9122;48.406;9.984;2023-06-24T02:11:24;19.10;90.20
17994;DHT22;9122;48.406;9.984;2023-06-24T02:14:09;19.10;90.30
17994;DHT22;9122;48.406;9.984;2023-06-24T02:16:55;19.10;90.40
17994;DHT22;9122;48.406;9.984;2023-06-24T02:19:41;19.00;90.40
17994;DHT22;9122;48.406;9.984;2023-06-24T02:22:27;19.00;90.30
17994;DHT22;9122;48.406;9.984;2023-06-24T02:25:12;19.00;90.30
17994;DHT22;9122;48.406;9.984;2023-06-24T02:27:57;19.00;90.30
17994;DHT22;9122;48.406;9.984;2023-06-24T02:30:42;19.00;90.40
17994;DHT22;9122;48.406;9.984;2023-06-24T02:33:27;18.90;90.40
17994;DHT22;9122;48.406;9.984;2023-06-24T02:36:12;18.90;90.30
17994;DHT22;9122;48.406;9.984;2023-06-24T02:38:56;18.90;90.40
17994;DHT22;9122;48.406;9.984;2023-06-24T02:41:41;18.90;90.40
17994;DHT22;9122;48.406;9.984;2023-06-24T02:44:25;18.90;90.50
17994;DHT22;9122;48.406;9.984;2023-06-24T02:47:11;18.90;90.50
17994;DHT22;9122;48.406;9.984;2023-06-24T02:49:57;18.90;90.60
17994;DHT22;9122;48.406;9.984;2023-06-24T02:52:42;18.80;90.60
17994;DHT22;9122;48.406;9.984;2023-06-24T02:55:27;18.80;90.60
17994;DHT22;9122;48.406;9.984;2023-06-24T02:58:12;18.70;90.60
17994;DHT22;9122;48.406;9.984;2023-06-24T03:01:01;18.70;90.70
17994;DHT22;9122;48.406;9.984;2023-06-24T03:03:48;18.70;90.80
17994;DHT22;9122;48.406;9.984;2023-06-24T03:06:33;18.60;90.80
17994;DHT22;9122;48.406;9.984;2023-06-24T03:09:20;18.60;90.80
17994;DHT22;9122;48.406;9.984;2023-06-24T03:12:05;18.50;90.80
17994;DHT22;9122;48.406;9.984;2023-06-24T03:14:50;18.60;91.00
17994;DHT22;9122;48.406;9.984;2023-06-24T03:17:35;18.50;90.90
17994;DHT22;9122;48.406;9.984;2023-06-24T03:20:20;18.50;90.90
17994;DHT22;9122;48.406;9.984;2023-06-24T03:23:06;18.50;91.00
17994;DHT22;9122;48.406;9.984;2023-06-24T03:25:50;18.40;90.90
17994;DHT22;9122;48.406;9.984;2023-06-24T03:28:34;18.40;90.90
17994;DHT22;9122;48.406;9.984;2023-06-24T03:31:19;18.40;90.80
17994;DHT22;9122;48.406;9.984;2023-06-24T03:34:07;18.40;90.90
17994;DHT22;9122;48.406;9.984;2023-06-24T03:36:51;18.30;90.90
17994;DHT22;9122;48.406;9.984;2023-06-24T03:39:36;18.30;90.90
17994;DHT22;9122;48.406;9.984;2023-06-24T03:42:20;18.30;91.00
17994;DHT22;9122;48.406;9.984;2023-06-24T03:45:05;18.30;91.30
17994;DHT22;9122;48.406;9.984;2023-06-24T03:47:49;18.20;90.90
17994;DHT22;9122;48.406;9.984;2023-06-24T03:50:33;18.20;90.80
17994;DHT22;9122;48.406;9.984;2023-06-24T03:53:17;18.20;90.80
17994;DHT22;9122;48.406;9.984;2023-06-24T03:56:01;18.10;90.70
17994;DHT22;9122;48.406;9.984;2023-06-24T03:58:45;18.10;90.70
17994;DHT22;9122;48.406;9.984;2023-06-24T04:01:29;18.10;90.70
17994;DHT22;9122;48.406;9.984;2023-06-24T04:04:16;18.00;90.80
17994;DHT22;9122;48.406;9.984;2023-06-24T04:07:00;18.00;90.80
17994;DHT22;9122;48.406;9.984;2023-06-24T04:09:45;18.00;90.90
17994;DHT22;9122;48.406;9.984;2023-06-24T04:12:29;17.90;90.90
17994;DHT22;9122;48.406;9.984;2023-06-24T04:15:13;17.90;91.00
17994;DHT22;9122;48.406;9.984;2023-06-24T04:17:58;17.90;91.10
17994;DHT22;9122;48.406;9.984;2023-06-24T04:20:43;17.90;91.20
17994;DHT22;9122;48.406;9.984;2023-06-24T04:23:28;17.90;91.20
17994;DHT22;9122;48.406;9.984;2023-06-24T04:26:12;17.80;91.20
17994;DHT22;9122;48.406;9.984;2023-06-24T04:28:56;17.80;91.30
17994;DHT22;9122;48.406;9.984;2023-06-24T04:31:40;17.80;91.40
17994;DHT22;9122;48.406;9.984;2023-06-24T04:34:25;17.80;91.40
17994;DHT22;9122;48.406;9.984;2023-06-24T04:37:11;17.80;91.50
17994;DHT22;9122;48.406;9.984;2023-06-24T04:39:56;17.80;91.60
17994;DHT22;9122;48.406;9.984;2023-06-24T04:42:41;17.80;91.70
17994;DHT22;9122;48.406;9.984;2023-06-24T04:45:25;17.80;91.70
17994;DHT22;9122;48.406;9.984;2023-06-24T04:48:10;17.80;91.80
17994;DHT22;9122;48.406;9.984;2023-06-24T04:50:54;17.80;91.90
17994;DHT22;9122;48.406;9.984;2023-06-24T04:53:40;17.80;91.90
17994;DHT22;9122;48.406;9.984;2023-06-24T04:56:24;17.80;91.80
17994;DHT22;9122;48.406;9.984;2023-06-24T04:59:09;17.80;91.90
17994;DHT22;9122;48.406;9.984;2023-06-24T05:01:53;17.80;92.00
17994;DHT22;9122;48.406;9.984;2023-06-24T05:04:39;17.90;92.10
17994;DHT22;9122;48.406;9.984;2023-06-24T05:07:24;17.90;92.10
17994;DHT22;9122;48.406;9.984;2023-06-24T05:10:08;17.90;92.10
17994;DHT22;9122;48.406;9.984;2023-06-24T05:12:52;17.90;92.00
17994;DHT22;9122;48.406;9.984;2023-06-24T05:15:37;18.00;92.10
17994;DHT22;9122;48.406;9.984;2023-06-24T05:18:21;18.00;92.20
17994;DHT22;9122;48.406;9.984;2023-06-24T05:21:05;18.00;92.20
17994;DHT22;9122;48.406;9.984;2023-06-24T05:23:49;18.00;92.10
17994;DHT22;9122;48.406;9.984;2023-06-24T05:26:33;18.10;92.10
17994;DHT22;9122;48.406;9.984;2023-06-24T05:29:18;18.10;92.20
17994;DHT22;9122;48.406;9.984;2023-06-24T05:32:03;18.10;92.20
17994;DHT22;9122;48.406;9.984;2023-06-24T05:34:47;18.20;92.20
17994;DHT22;9122;48.406;9.984;2023-06-24T05:37:32;18.20;92.10
17994;DHT22;9122;48.406;9.984;2023-06-24T05:40:16;18.30;92.00
17994;DHT22;9122;48.406;9.984;2023-06-24T05:43:00;18.30;91.90
17994;DHT22;9122;48.406;9.984;2023-06-24T05:45:45;18.30;91.80
17994;DHT22;9122;48.406;9.984;2023-06-24T05:48:30;18.30;91.70
17994;DHT22;9122;48.406;9.984;2023-06-24T05:51:15;18.30;91.70
17994;DHT22;9122;48.406;9.984;2023-06-24T05:53:59;18.40;91.60
17994;DHT22;9122;48.406;9.984;2023-06-24T05:56:43;18.40;91.40
17994;DHT22;9122;48.406;9.984;2023-06-24T05:59:27;18.50;91.20
17994;DHT22;9122;48.406;9.984;2023-06-24T06:02:12;18.50;90.80
17994;DHT22;9122;48.406;9.984;2023-06-24T06:04:56;18.60;90.40
17994;DHT22;9122;48.406;9.984;2023-06-24T06:07:40;18.70;90.10
17994;DHT22;9122;48.406;9.984;2023-06-24T06:10:24;18.70;89.80
17994;DHT22;9122;48.406;9.984;2023-06-24T06:13:09;18.80;89.50
17994;DHT22;9122;48.406;9.984;2023-06-24T06:15:54;18.90;89.20
17994;DHT22;9122;48.406;9.984;2023-06-24T06:18:39;18.90;89.00
17994;DHT22;9122;48.406;9.984;2023-06-24T06:21:24;19.00;88.60
17994;DHT22;9122;48.406;9.984;2023-06-24T06:24:08;19.10;88.60
17994;DHT22;9122;48.406;9.984;2023-06-24T06:26:53;19.20;88.10
17994;DHT22;9122;48.406;9.984;2023-06-24T06:29:38;19.30;88.00
17994;DHT22;9122;48.406;9.984;2023-06-24T06:32:23;19.40;87.90
17994;DHT22;9122;48.406;9.984;2023-06-24T06:35:07;19.50;87.60
17994;DHT22;9122;48.406;9.984;2023-06-24T06:37:52;19.50;87.30
17994;DHT22;9122;48.406;9.984;2023-06-24T06:40:37;19.60;87.00
17994;DHT22;9122;48.406;9.984;2023-06-24T06:43:22;19.70;86.60
17994;DHT22;9122;48.406;9.984;2023-06-24T06:46:07;19.80;86.30
17994;DHT22;9122;48.406;9.984;2023-06-24T06:48:51;19.90;86.00
17994;DHT22;9122;48.406;9.984;2023-06-24T06:51:35;20.00;85.90
17994;DHT22;9122;48.406;9.984;2023-06-24T06:54:20;20.10;85.60
17994;DHT22;9122;48.406;9.984;2023-06-24T06:57:04;20.20;85.20
17994;DHT22;9122;48.406;9.984;2023-06-24T06:59:49;20.30;85.10
17994;DHT22;9122;48.406;9.984;2023-06-24T07:02:36;20.40;84.60
17994;DHT22;9122;48.406;9.984;2023-06-24T07:05:20;20.40;84.70
17994;DHT22;9122;48.406;9.984;2023-06-24T07:08:05;20.50;83.40
17994;DHT22;9122;48.406;9.984;2023-06-24T07:10:50;20.60;83.20
17994;DHT22;9122;48.406;9.984;2023-06-24T07:13:35;20.70;83.00
17994;DHT22;9122;48.406;9.984;2023-06-24T07:16:19;20.80;83.20
17994;DHT22;9122;48.406;9.984;2023-06-24T07:19:04;20.90;82.10
17994;DHT22;9122;48.406;9.984;2023-06-24T07:21:48;21.00;82.20
17994;DHT22;9122;48.406;9.984;2023-06-24T07:24:32;21.10;80.60
17994;DHT22;9122;48.406;9.984;2023-06-24T07:27:16;21.20;79.30
17994;DHT22;9122;48.406;9.984;2023-06-24T07:30:01;21.30;77.80
17994;DHT22;9122;48.406;9.984;2023-06-24T07:32:45;21.40;77.10
17994;DHT22;9122;48.406;9.984;2023-06-24T07:35:29;21.50;76.70
17994;DHT22;9122;48.406;9.984;2023-06-24T07:38:14;21.60;76.20
17994;DHT22;9122;48.406;9.984;2023-06-24T07:40:58;21.70;75.90
17994;DHT22;9122;48.406;9.984;2023-06-24T07:43:43;21.80;75.70
17994;DHT22;9122;48.406;9.984;2023-06-24T07:46:28;21.90;76.00
17994;DHT22;9122;48.406;9.984;2023-06-24T07:49:12;22.00;75.70
17994;DHT22;9122;48.406;9.984;2023-06-24T07:51:56;22.10;75.30
17994;DHT22;9122;48.406;9.984;2023-06-24T07:54:41;22.20;74.80
17994;DHT22;9122;48.406;9.984;2023-06-24T07:57:26;22.30;73.50
17994;DHT22;9122;48.406;9.984;2023-06-24T08:00:12;22.40;72.80
17994;DHT22;9122;48.406;9.984;2023-06-24T08:03:00;22.40;72.90
17994;DHT22;9122;48.406;9.984;2023-06-24T08:05:44;22.50;73.10
17994;DHT22;9122;48.406;9.984;2023-06-24T08:08:30;22.60;72.70
17994;DHT22;9122;48.406;9.984;2023-06-24T08:11:14;22.70;72.10
17994;DHT22;9122;48.406;9.984;2023-06-24T08:13:58;22.80;71.70
17994;DHT22;9122;48.406;9.984;2023-06-24T08:16:43;22.80;71.50
17994;DHT22;9122;48.406;9.984;2023-06-24T08:19:28;22.90;71.20
17994;DHT22;9122;48.406;9.984;2023-06-24T08:22:13;23.00;70.90
17994;DHT22;9122;48.406;9.984;2023-06-24T08:24:58;23.10;70.80
17994;DHT22;9122;48.406;9.984;2023-06-24T08:27:43;23.20;70.60
17994;DHT22;9122;48.406;9.984;2023-06-24T08:30:30;23.20;70.40
17994;DHT22;9122;48.406;9.984;2023-06-24T08:33:15;23.30;70.40
17994;DHT22;9122;48.406;9.984;2023-06-24T08:35:59;23.30;70.00
17994;DHT22;9122;48.406;9.984;2023-06-24T08:38:43;23.40;69.80
17994;DHT22;9122;48.406;9.984;2023-06-24T08:41:27;23.50;69.40
17994;DHT22;9122;48.406;9.984;2023-06-24T08:44:12;23.60;69.40
17994;DHT22;9122;48.406;9.984;2023-06-24T08:46:57;23.60;68.80
17994;DHT22;9122;48.406;9.984;2023-06-24T08:49:55;23.60;69.50
17994;DHT22;9122;48.406;9.984;2023-06-24T08:52:51;23.60;69.70
17994;DHT22;9122;48.406;9.984;2023-06-24T08:55:43;23.60;69.00
17994;DHT22;9122;48.406;9.984;2023-06-24T08:58:27;23.60;69.00
17994;DHT22;9122;48.406;9.984;2023-06-24T09:01:12;23.70;68.50
17994;DHT22;9122;48.406;9.984;2023-06-24T09:03:57;23.80;67.60
17994;DHT22;9122;48.406;9.984;2023-06-24T09:06:41;23.90;67.30
17994;DHT22;9122;48.406;9.984;2023-06-24T09:09:25;23.90;67.50
17994;DHT22;9122;48.406;9.984;2023-06-24T09:12:13;24.00;67.30
17994;DHT22;9122;48.406;9.984;2023-06-24T09:14:58;24.10;67.10
17994;DHT22;9122;48.406;9.984;2023-06-24T09:17:45;24.20;66.60
17994;DHT22;9122;48.406;9.984;2023-06-24T09:20:33;24.30;65.70
17994;DHT22;9122;48.406;9.984;2023-06-24T09:23:26;24.40;64.50
17994;DHT22;9122;48.406;9.984;2023-06-24T09:26:11;24.50;63.40
17994;DHT22;9122;48.406;9.984;2023-06-24T09:28:57;24.50;63.80
17994;DHT22;9122;48.406;9.984;2023-06-24T09:31:48;24.60;64.20
17994;DHT22;9122;48.406;9.984;2023-06-24T09:34:33;24.70;63.60
17994;DHT22;9122;48.406;9.984;2023-06-24T09:37:21;24.70;63.10
17994;DHT22;9122;48.406;9.984;2023-06-24T09:40:08;24.70;62.60
17994;DHT22;9122;48.406;9.984;2023-06-24T09:42:57;24.70;63.60
17994;DHT22;9122;48.406;9.984;2023-06-24T09:45:42;24.90;64.10
17994;DHT22;9122;48.406;9.984;2023-06-24T09:48:26;24.90;63.80
17994;DHT22;9122;48.406;9.984;2023-06-24T09:51:12;25.00;63.40
17994;DHT22;9122;48.406;9.984;2023-06-24T09:53:57;25.00;63.10
17994;DHT22;9122;48.406;9.984;2023-06-24T09:56:48;25.10;63.70
17994;DHT22;9122;48.406;9.984;2023-06-24T09:59:33;25.20;62.80
17994;DHT22;9122;48.406;9.984;2023-06-24T10:02:18;25.30;60.00
17994;DHT22;9122;48.406;9.984;2023-06-24T10:05:04;25.40;57.70
17994;DHT22;9122;48.406;9.984;2023-06-24T10:07:49;25.40;58.30
17994;DHT22;9122;48.406;9.984;2023-06-24T10:10:33;25.50;58.60
17994;DHT22;9122;48.406;9.984;2023-06-24T10:13:17;25.50;59.30
17994;DHT22;9122;48.406;9.984;2023-06-24T10:16:03;25.60;59.30
17994;DHT22;9122;48.406;9.984;2023-06-24T10:18:47;25.60;59.70
17994;DHT22;9122;48.406;9.984;2023-06-24T10:21:45;25.60;58.90
17994;DHT22;9122;48.406;9.984;2023-06-24T10:24:38;25.70;58.00
17994;DHT22;9122;48.406;9.984;2023-06-24T10:27:26;25.70;57.60
17994;DHT22;9122;48.406;9.984;2023-06-24T10:30:18;25.80;57.10
17994;DHT22;9122;48.406;9.984;2023-06-24T10:33:12;25.80;56.90
17994;DHT22;9122;48.406;9.984;2023-06-24T10:35:57;25.80;56.50
17994;DHT22;9122;48.406;9.984;2023-06-24T10:38:41;25.90;57.00
17994;DHT22;9122;48.406;9.984;2023-06-24T10:41:26;26.00;56.40
17994;DHT22;9122;48.406;9.984;2023-06-24T10:44:17;26.00;55.40
17994;DHT22;9122;48.406;9.984;2023-06-24T10:47:01;26.00;55.20
17994;DHT22;9122;48.406;9.984;2023-06-24T10:49:46;26.10;55.70
17994;DHT22;9122;48.406;9.984;2023-06-24T10:52:31;26.10;55.50
17994;DHT22;9122;48.406;9.984;2023-06-24T10:55:18;26.20;55.20
17994;DHT22;9122;48.406;9.984;2023-06-24T10:58:10;26.20;55.60
17994;DHT22;9122;48.406;9.984;2023-06-24T11:01:06;26.40;54.90
17994;DHT22;9122;48.406;9.984;2023-06-24T11:03:51;26.40;54.30
17994;DHT22;9122;48.406;9.984;2023-06-24T11:06:35;26.40;53.70
17994;DHT22;9122;48.406;9.984;2023-06-24T11:09:20;26.50;53.50
17994;DHT22;9122;48.406;9.984;2023-06-24T11:12:05;26.60;52.40
17994;DHT22;9122;48.406;9.984;2023-06-24T11:14:49;26.60;51.80
17994;DHT22;9122;48.406;9.984;2023-06-24T11:17:34;26.60;51.60
17994;DHT22;9122;48.406;9.984;2023-06-24T11:20:19;26.70;50.80
17994;DHT22;9122;48.406;9.984;2023-06-24T11:23:07;26.60;51.00
17994;DHT22;9122;48.406;9.984;2023-06-24T11:25:52;26.60;51.00
17994;DHT22;9122;48.406;9.984;2023-06-24T11:28:37;26.70;50.30
17994;DHT22;9122;48.406;9.984;2023-06-24T11:31:25;26.70;49.50
17994;DHT22;9122;48.406;9.984;2023-06-24T11:34:10;26.70;47.80
17994;DHT22;9122;48.406;9.984;2023-06-24T11:36:55;26.70;48.70
17994;DHT22;9122;48.406;9.984;2023-06-24T11:39:39;26.70;49.40
17994;DHT22;9122;48.406;9.984;2023-06-24T11:42:28;26.70;49.60
17994;DHT22;9122;48.406;9.984;2023-06-24T11:45:13;26.80;49.70
17994;DHT22;9122;48.406;9.984;2023-06-24T11:48:04;26.80;49.50
17994;DHT22;9122;48.406;9.984;2023-06-24T11:50:55;26.90;50.00
17994;DHT22;9122;48.406;9.984;2023-06-24T11:53:43;26.90;50.20
17994;DHT22;9122;48.406;9.984;2023-06-24T11:56:38;26.90;50.10
17994;DHT22;9122;48.406;9.984;2023-06-24T11:59:23;26.90;50.20
17994;DHT22;9122;48.406;9.984;2023-06-24T12:02:14;26.90;50.20
17994;DHT22;9122;48.406;9.984;2023-06-24T12:04:59;26.90;49.40
17994;DHT22;9122;48.406;9.984;2023-06-24T12:07:46;26.90;49.20
17994;DHT22;9122;48.406;9.984;2023-06-24T12:10:31;27.00;49.20
17994;DHT22;9122;48.406;9.984;2023-06-24T12:13:18;27.00;48.90
17994;DHT22;9122;48.406;9.984;2023-06-24T12:16:03;27.00;49.30
17994;DHT22;9122;48.406;9.984;2023-06-24T12:18:47;27.00;49.00
17994;DHT22;9122;48.406;9.984;2023-06-24T12:21:32;27.10;49.30
17994;DHT22;9122;48.406;9.984;2023-06-24T12:24:16;27.10;47.30
17994;DHT22;9122;48.406;9.984;2023-06-24T12:27:00;27.10;46.90
17994;DHT22;9122;48.406;9.984;2023-06-24T12:29:44;27.10;47.60
17994;DHT22;9122;48.406;9.984;2023-06-24T12:32:28;27.20;48.50
17994;DHT22;9122;48.406;9.984;2023-06-24T12:35:13;27.10;48.20
17994;DHT22;9122;48.406;9.984;2023-06-24T12:37:57;27.10;47.70
17994;DHT22;9122;48.406;9.984;2023-06-24T12:40:42;27.20;47.40
17994;DHT22;9122;48.406;9.984;2023-06-24T12:43:28;27.20;47.30
17994;DHT22;9122;48.406;9.984;2023-06-24T12:46:12;27.20;47.90
17994;DHT22;9122;48.406;9.984;2023-06-24T12:48:57;27.20;48.70
17994;DHT22;9122;48.406;9.984;2023-06-24T12:51:42;27.30;48.30
17994;DHT22;9122;48.406;9.984;2023-06-24T12:54:26;27.20;48.20
17994;DHT22;9122;48.406;9.984;2023-06-24T12:57:11;27.20;48.20
17994;DHT22;9122;48.406;9.984;2023-06-24T12:59:55;27.20;48.30
17994;DHT22;9122;48.406;9.984;2023-06-24T13:02:40;27.10;48.10
17994;DHT22;9122;48.406;9.984;2023-06-24T13:05:24;27.10;48.60
17994;DHT22;9122;48.406;9.984;2023-06-24T13:08:09;27.10;48.10
17994;DHT22;9122;48.406;9.984;2023-06-24T13:10:55;27.10;48.00
17994;DHT22;9122;48.406;9.984;2023-06-24T13:13:39;27.10;48.30
17994;DHT22;9122;48.406;9.984;2023-06-24T13:16:23;27.10;48.10
17994;DHT22;9122;48.406;9.984;2023-06-24T13:19:07;27.00;48.40
17994;DHT22;9122;48.406;9.984;2023-06-24T13:21:52;27.00;48.30
17994;DHT22;9122;48.406;9.984;2023-06-24T13:24:36;27.00;48.10
17994;DHT22;9122;48.406;9.984;2023-06-24T13:27:20;27.00;48.30
17994;DHT22;9122;48.406;9.984;2023-06-24T13:30:05;27.00;48.70
17994;DHT22;9122;48.406;9.984;2023-06-24T13:32:50;27.00;48.90
17994;DHT22;9122;48.406;9.984;2023-06-24T13:35:35;27.00;48.70
17994;DHT22;9122;48.406;9.984;2023-06-24T13:38:19;27.00;48.60
17994;DHT22;9122;48.406;9.984;2023-06-24T13:41:04;26.90;48.80
17994;DHT22;9122;48.406;9.984;2023-06-24T13:43:49;26.90;49.30
17994;DHT22;9122;48.406;9.984;2023-06-24T13:46:34;26.90;49.60
17994;DHT22;9122;48.406;9.984;2023-06-24T13:49:18;26.90;49.00
17994;DHT22;9122;48.406;9.984;2023-06-24T13:52:02;26.90;48.70
17994;DHT22;9122;48.406;9.984;2023-06-24T13:54:46;26.80;48.30
17994;DHT22;9122;48.406;9.984;2023-06-24T13:57:30;26.80;48.30
17994;DHT22;9122;48.406;9.984;2023-06-24T14:00:15;26.80;48.30
17994;DHT22;9122;48.406;9.984;2023-06-24T14:03:00;26.80;48.50
17994;DHT22;9122;48.406;9.984;2023-06-24T14:05:46;26.80;48.50
17994;DHT22;9122;48.406;9.984;2023-06-24T14:08:31;26.80;48.00
17994;DHT22;9122;48.406;9.984;2023-06-24T14:11:17;26.70;48.50
17994;DHT22;9122;48.406;9.984;2023-06-24T14:14:01;26.70;49.10
17994;DHT22;9122;48.406;9.984;2023-06-24T14:16:47;26.70;49.10
17994;DHT22;9122;48.406;9.984;2023-06-24T14:19:31;26.70;49.20
17994;DHT22;9122;48.406;9.984;2023-06-24T14:22:16;26.70;49.10
17994;DHT22;9122;48.406;9.984;2023-06-24T14:25:04;26.70;49.40
17994;DHT22;9122;48.406;9.984;2023-06-24T14:27:48;26.60;49.60
17994;DHT22;9122;48.406;9.984;2023-06-24T14:30:33;26.60;49.90
17994;DHT22;9122;48.406;9.984;2023-06-24T14:33:18;26.60;49.90
17994;DHT22;9122;48.406;9.984;2023-06-24T14:36:03;26.60;49.90
17994;DHT22;9122;48.406;9.984;2023-06-24T14:38:48;26.50;50.20
17994;DHT22;9122;48.406;9.984;2023-06-24T14:41:32;26.50;50.40
17994;DHT22;9122;48.406;9.984;2023-06-24T14:44:18;26.50;50.30
17994;DHT22;9122;48.406;9.984;2023-06-24T14:47:03;26.50;49.90
17994;DHT22;9122;48.406;9.984;2023-06-24T14:49:48;26.50;49.70
17994;DHT22;9122;48.406;9.984;2023-06-24T14:52:33;26.50;49.70
17994;DHT22;9122;48.406;9.984;2023-06-24T14:55:17;26.40;49.60
17994;DHT22;9122;48.406;9.984;2023-06-24T14:58:02;25.80;49.50
17994;DHT22;9122;48.406;9.984;2023-06-24T15:00:46;26.50;50.20
17994;DHT22;9122;48.406;9.984;2023-06-24T15:03:30;26.40;49.90
17994;DHT22;9122;48.406;9.984;2023-06-24T15:06:15;26.40;49.80
17994;DHT22;9122;48.406;9.984;2023-06-24T15:09:00;26.40;49.50
17994;DHT22;9122;48.406;9.984;2023-06-24T15:11:44;26.40;49.60
17994;DHT22;9122;48.406;9.984;2023-06-24T15:14:29;26.40;49.60
17994;DHT22;9122;48.406;9.984;2023-06-24T15:17:13;26.30;50.00
17994;DHT22;9122;48.406;9.984;2023-06-24T15:19:57;26.30;49.70
17994;DHT22;9122;48.406;9.984;2023-06-24T15:22:41;26.30;49.90
17994;DHT22;9122;48.406;9.984;2023-06-24T15:25:26;26.30;50.00
17994;DHT22;9122;48.406;9.984;2023-06-24T15:28:11;26.20;49.90
17994;DHT22;9122;48.406;9.984;2023-06-24T15:30:56;26.20;50.00
17994;DHT22;9122;48.406;9.984;2023-06-24T15:33:40;26.20;50.30
17994;DHT22;9122;48.406;9.984;2023-06-24T15:36:25;26.20;50.40
17994;DHT22;9122;48.406;9.984;2023-06-24T15:39:12;26.20;50.40
17994;DHT22;9122;48.406;9.984;2023-06-24T15:41:57;26.20;50.00
17994;DHT22;9122;48.406;9.984;2023-06-24T15:44:41;26.20;49.50
17994;DHT22;9122;48.406;9.984;2023-06-24T15:47:26;26.20;49.70
17994;DHT22;9122;48.406;9.984;2023-06-24T15:50:11;26.10;49.90
17994;DHT22;9122;48.406;9.984;2023-06-24T15:52:57;26.10;50.10
17994;DHT22;9122;48.406;9.984;2023-06-24T15:55:41;26.10;50.00
17994;DHT22;9122;48.406;9.984;2023-06-24T15:58:26;26.10;50.40
17994;DHT22;9122;48.406;9.984;2023-06-24T16:01:10;26.10;50.90
17994;DHT22;9122;48.406;9.984;2023-06-24T16:03:54;26.10;50.40
17994;DHT22;9122;48.406;9.984;2023-06-24T16:06:38;26.10;50.40
17994;DHT22;9122;48.406;9.984;2023-06-24T16:09:23;26.10;50.50
17994;DHT22;9122;48.406;9.984;2023-06-24T16:12:07;26.10;50.00
17994;DHT22;9122;48.406;9.984;2023-06-24T16:14:52;26.10;50.00
17994;DHT22;9122;48.406;9.984;2023-06-24T16:17:37;26.10;50.20
17994;DHT22;9122;48.406;9.984;2023-06-24T16:20:22;26.10;50.30
17994;DHT22;9122;48.406;9.984;2023-06-24T16:23:06;26.10;50.20
17994;DHT22;9122;48.406;9.984;2023-06-24T16:25:52;26.10;50.20
17994;DHT22;9122;48.406;9.984;2023-06-24T16:28:38;26.00;50.10
17994;DHT22;9122;48.406;9.984;2023-06-24T16:31:22;26.00;50.30
17994;DHT22;9122;48.406;9.984;2023-06-24T16:34:06;26.10;50.10
17994;DHT22;9122;48.406;9.984;2023-06-24T16:36:52;26.00;49.70
17994;DHT22;9122;48.406;9.984;2023-06-24T16:39:39;26.00;49.40
17994;DHT22;9122;48.406;9.984;2023-06-24T16:42:23;26.00;49.50
17994;DHT22;9122;48.406;9.984;2023-06-24T16:45:08;26.00;49.80
17994;DHT22;9122;48.406;9.984;2023-06-24T16:47:52;26.00;49.70
17994;DHT22;9122;48.406;9.984;2023-06-24T16:50:37;26.00;49.30
17994;DHT22;9122;48.406;9.984;2023-06-24T16:53:22;26.00;49.40
17994;DHT22;9122;48.406;9.984;2023-06-24T16:56:07;26.00;49.80
17994;DHT22;9122;48.406;9.984;2023-06-24T16:58:51;26.00;49.40
17994;DHT22;9122;48.406;9.984;2023-06-24T17:01:36;26.00;49.20
17994;DHT22;9122;48.406;9.984;2023-06-24T17:04:20;26.00;49.00
17994;DHT22;9122;48.406;9.984;2023-06-24T17:07:04;26.00;49.00
17994;DHT22;9122;48.406;9.984;2023-06-24T17:09:49;26.00;49.00
17994;DHT22;9122;48.406;9.984;2023-06-24T17:12:33;26.00;49.00
17994;DHT22;9122;48.406;9.984;2023-06-24T17:15:21;26.00;49.00
17994;DHT22;9122;48.406;9.984;2023-06-24T17:18:05;26.00;48.90
17994;DHT22;9122;48.406;9.984;2023-06-24T17:20:50;26.00;49.00
17994;DHT22;9122;48.406;9.984;2023-06-24T17:23:34;26.00;48.90
17994;DHT22;9122;48.406;9.984;2023-06-24T17:26:19;25.90;48.50
17994;DHT22;9122;48.406;9.984;2023-06-24T17:29:03;25.90;48.60
17994;DHT22;9122;48.406;9.984;2023-06-24T17:31:47;25.90;48.70
17994;DHT22;9122;48.406;9.984;2023-06-24T17:34:32;25.90;48.60
17994;DHT22;9122;48.406;9.984;2023-06-24T17:37:16;25.90;48.60
17994;DHT22;9122;48.406;9.984;2023-06-24T17:40:01;25.90;48.50
17994;DHT22;9122;48.406;9.984;2023-06-24T17:42:46;25.80;48.80
17994;DHT22;9122;48.406;9.984;2023-06-24T17:45:30;25.80;48.80
17994;DHT22;9122;48.406;9.984;2023-06-24T17:48:15;25.80;48.60
17994;DHT22;9122;48.406;9.984;2023-06-24T17:51:00;25.80;48.60
17994;DHT22;9122;48.406;9.984;2023-06-24T17:53:44;25.80;48.70